Airfield :







YOU CAN JOIN US ON...

 
LOGIN :

Register | Disclaimer

   EN    FR    IT 

 









Legend :    VFR   Marginal VFR   IFR   Intensive IFR   Very Intensive IFR
Visi :
Ceiling :
>= 8 km
>= 3000ft
5 to 8 km
1000 to 3000 ft
1500m to 5 km
500 to 1000 ft
800 to 1500m
200 to 500 ft
< 800m
< 200 ft
Symbols :   Thunderstorms  Fog  Heavy snow  Heavy precipitations  Wind > 20 kt






- Airport Elevation : 110 ft
- IATA code : YFB


CYFB - Iqaluit

CURRENT METAR :
  • 162100Z 33011KT 15SM -SN DRSN FEW036 OVC047 M08/M12 A2991 RMK SC1SC7 SLP133

EXPIRED METARs :
  • 162000Z 32007KT 30SM -SN FEW020 OVC050 M08/M12 A2991 RMK SC1SC8 SC TR SLP133
  • 161931Z 33005KT 30SM -SN FEW020 OVC051 M08/M12 A2991 RMK SC1SC8 SC TR SLP133
  • 161900Z 34005KT 30SM FEW020 OVC055 M08/M12 A2991 RMK SC1SC8 SC TR SLP132
  • 161800Z 35005KT 30SM FEW020 BKN055 M08/M12 A2991 RMK SC1SC7 SC TR SLP133

TAF TAF CYFB
Valid from the 16 at 18:00 until the 17 at 18:00 UTC


161741Z 1618/1718 34008KT P6SM OVC060
TEMPO 1618/1620 P6SM -SN OVC040
FM170200 35010KT P6SM FEW020 SCT200
FM171200 35005KT P6SM FEW020 SCT080 BKN120 RMK NXT FCST BY 170000Z



MET'MAP, your aeronautical weather chart ! - Copyright ORBIFLY December 2007 - Disclaimer

ORBIFLY MET'MAP TEAM :

Programming & Development : Alexandra Zaïnal
Concept & Development : Baudouin d'Aumeries
Co-Development & Prog : Marc-Olivier Méhu
Technical & hardware support : Manuel Goepfert

Contact : metmap@orbifly.com




SOURCES & CREDITS :

   NOAA